Time;durP1;ratioP1;P1;durP2;ratioP2;P2;SDS_P1;SDS_P2;PMS_P1;PMS_P2;Temp;Humidity;BMP_temperature;BMP_pressure;BME280_temperature;BME280_humidity;BME280_pressure;Samples;Min_cycle;Max_cycle;Signal;HPM_P1;HPM_P2
2023/01/13 00:00:16;;;;;;;0.80;0.80;;;17.50;70.50;;;;;;5105887;27;43995;-70
2023/01/13 00:02:45;;;;;;;0.70;0.70;;;17.40;69.80;;;;;;5095896;27;43834;-72
2023/01/13 00:05:13;;;;;;;0.67;0.67;;;17.40;69.90;;;;;;5098099;27;43405;-72
2023/01/13 00:07:42;;;;;;;0.83;0.83;;;17.40;70.00;;;;;;5101353;27;44020;-75
2023/01/13 00:10:11;;;;;;;0.80;0.80;;;17.40;69.80;;;;;;5091409;27;44114;-70
2023/01/13 00:12:40;;;;;;;0.80;0.80;;;17.40;70.00;;;;;;5093496;27;43473;-72
2023/01/13 00:15:09;;;;;;;0.63;0.63;;;17.40;70.00;;;;;;5091298;27;43402;-71
2023/01/13 00:17:37;;;;;;;0.77;0.77;;;17.40;70.10;;;;;;5095403;27;43755;-73
2023/01/13 00:20:08;;;;;;;0.90;0.90;;;17.40;70.10;;;;;;5088018;27;43563;-71
2023/01/13 00:22:36;;;;;;;0.73;0.73;;;17.40;70.30;;;;;;5102593;27;43338;-73
2023/01/13 00:25:05;;;;;;;0.77;0.77;;;17.40;70.00;;;;;;5092351;27;43533;-72
2023/01/13 00:27:33;;;;;;;0.73;0.73;;;17.50;69.60;;;;;;5106486;27;43957;-70
2023/01/13 00:30:01;;;;;;;0.80;0.80;;;17.60;69.30;;;;;;5097058;27;43937;-70
2023/01/13 00:32:29;;;;;;;0.80;0.80;;;17.60;69.30;;;;;;5085199;27;43461;-70
2023/01/13 00:34:58;;;;;;;0.80;0.80;;;17.50;69.40;;;;;;5078259;27;43523;-71
2023/01/13 00:37:27;;;;;;;0.80;0.80;;;17.50;69.60;;;;;;5095197;27;44046;-71
2023/01/13 00:39:56;;;;;;;0.77;0.77;;;17.50;69.60;;;;;;5091226;27;43499;-70
2023/01/13 00:45:10;;;;;;;0.70;0.70;;;17.50;69.70;;;;;;5096338;27;43900;-71
2023/01/13 00:47:38;;;;;;;0.70;0.70;;;17.40;69.70;;;;;;5103906;27;43801;-70
2023/01/13 00:50:07;;;;;;;0.70;0.70;;;17.40;69.80;;;;;;5100025;27;43996;-71
2023/01/13 00:52:36;;;;;;;0.77;0.77;;;17.40;70.10;;;;;;5092793;27;43487;-70
2023/01/13 00:55:04;;;;;;;0.60;0.60;;;17.40;69.90;;;;;;5083496;27;43565;-71
2023/01/13 00:57:32;;;;;;;0.67;0.67;;;17.40;70.00;;;;;;5094908;27;43599;-72
2023/01/13 01:00:00;;;;;;;0.70;0.70;;;17.40;70.00;;;;;;5103406;27;43468;-71
2023/01/13 01:02:28;;;;;;;0.70;0.70;;;17.40;70.00;;;;;;5099756;27;44145;-71
2023/01/13 01:04:56;;;;;;;0.70;0.70;;;17.40;70.10;;;;;;5077813;27;43982;-72
2023/01/13 01:07:24;;;;;;;0.80;0.80;;;17.30;70.20;;;;;;5100827;27;43603;-71
2023/01/13 01:09:53;;;;;;;0.80;0.80;;;17.40;70.10;;;;;;5098679;27;43467;-70
2023/01/13 01:12:21;;;;;;;0.73;0.73;;;17.50;69.80;;;;;;5097583;27;43602;-72
2023/01/13 01:14:49;;;;;;;0.60;0.60;;;17.60;69.50;;;;;;5084080;27;43364;-72
2023/01/13 01:17:17;;;;;;;0.80;0.80;;;17.60;69.30;;;;;;5102607;27;43985;-72
2023/01/13 01:19:44;;;;;;;0.60;0.60;;;17.60;69.40;;;;;;5096351;27;43446;-71
2023/01/13 01:22:12;;;;;;;0.70;0.70;;;17.50;69.50;;;;;;5089410;27;44233;-72
2023/01/13 01:24:40;;;;;;;0.50;0.50;;;17.50;69.60;;;;;;5095271;27;43382;-71
2023/01/13 01:27:09;;;;;;;0.90;0.90;;;17.50;70.30;;;;;;5098792;27;44055;-73
2023/01/13 01:29:37;;;;;;;0.50;0.50;;;17.50;69.60;;;;;;5103323;27;43436;-71
2023/01/13 01:32:06;;;;;;;0.70;0.70;;;17.50;69.70;;;;;;5097052;27;43446;-71
2023/01/13 01:34:34;;;;;;;0.70;0.70;;;17.40;69.80;;;;;;5101134;27;43558;-72
2023/01/13 01:37:02;;;;;;;0.70;0.70;;;17.40;69.90;;;;;;5098078;27;43975;-71
2023/01/13 01:39:30;;;;;;;0.50;0.50;;;17.40;70.10;;;;;;5100807;27;43954;-71
2023/01/13 01:45:13;;;;;;;0.87;0.87;;;17.40;69.90;;;;;;5100109;27;44014;-73
2023/01/13 01:47:41;;;;;;;0.60;0.60;;;17.40;70.00;;;;;;5078481;27;44021;-72
2023/01/13 01:50:10;;;;;;;0.70;0.70;;;17.40;70.10;;;;;;5099861;27;43445;-70
2023/01/13 01:52:39;;;;;;;0.70;0.70;;;17.30;70.00;;;;;;5103075;27;43449;-73
2023/01/13 01:55:09;;;;;;;0.60;0.60;;;17.40;70.30;;;;;;5101276;27;43577;-71
2023/01/13 01:57:39;;;;;;;0.60;0.60;;;17.40;70.00;;;;;;5092525;27;43602;-72
2023/01/13 02:00:09;;;;;;;0.60;0.60;;;17.60;69.70;;;;;;5106263;27;43380;-70
2023/01/13 02:02:42;;;;;;;0.67;0.67;;;17.60;69.30;;;;;;5091223;27;44004;-71
2023/01/13 02:05:10;;;;;;;0.63;0.63;;;17.60;69.10;;;;;;5081297;27;43643;-72
2023/01/13 02:07:39;;;;;;;0.67;0.67;;;17.60;69.30;;;;;;5100385;27;44061;-72
2023/01/13 02:10:08;;;;;;;0.60;0.60;;;17.50;69.50;;;;;;5087849;27;43681;-71
2023/01/13 02:12:35;;;;;;;0.50;0.50;;;17.50;69.40;;;;;;5108833;27;43378;-71
2023/01/13 02:15:05;;;;;;;0.60;0.60;;;17.50;69.50;;;;;;5106054;27;43370;-71
2023/01/13 02:18:11;;;;;;;0.60;0.60;;;17.50;69.60;;;;;;5107261;27;43612;-72
2023/01/13 02:20:56;;;;;;;0.70;0.70;;;17.50;69.70;;;;;;5023791;28;44607;-70
2023/01/13 02:26:40;;;;;;;0.67;0.67;;;17.40;70.00;;;;;;5083049;27;43512;-71
2023/01/13 02:32:00;;;;;;;0.60;0.60;;;17.40;69.90;;;;;;5091435;27;43460;-71
2023/01/13 02:34:31;;;;;;;0.57;0.57;;;17.40;70.00;;;;;;5099984;27;43410;-70
2023/01/13 02:37:01;;;;;;;0.73;0.73;;;17.40;70.10;;;;;;5095285;27;43512;-72
2023/01/13 02:39:32;;;;;;;0.60;0.60;;;17.30;70.10;;;;;;5097250;27;43949;-73
2023/01/13 02:44:52;;;;;;;0.70;0.70;;;17.40;69.90;;;;;;5089840;27;43479;-72
2023/01/13 02:47:21;;;;;;;0.50;0.50;;;17.50;69.60;;;;;;5084017;27;43551;-70
2023/01/13 02:49:50;;;;;;;0.70;0.70;;;17.50;69.40;;;;;;5103947;27;43922;-71
2023/01/13 02:52:21;;;;;;;0.60;0.60;;;17.50;69.60;;;;;;5084157;27;43479;-72
2023/01/13 02:54:52;;;;;;;0.50;0.50;;;17.50;69.70;;;;;;5084955;27;43350;-72
2023/01/13 02:57:20;;;;;;;0.50;0.50;;;17.40;69.80;;;;;;5101910;27;43880;-70
2023/01/13 02:59:48;;;;;;;0.50;0.50;;;17.40;69.60;;;;;;5102974;27;43598;-72
2023/01/13 03:02:18;;;;;;;0.40;0.40;;;17.40;69.80;;;;;;5097158;27;44031;-70
2023/01/13 03:04:52;;;;;;;0.50;0.50;;;17.40;69.80;;;;;;5102049;27;43428;-71
2023/01/13 03:07:59;;;;;;;0.50;0.50;;;17.40;69.90;;;;;;5082086;27;43842;-70
2023/01/13 03:10:46;;;;;;;0.67;0.67;;;17.40;70.10;;;;;;5092051;27;44023;-70
2023/01/13 03:13:38;;;;;;;0.50;0.50;;;17.40;70.10;;;;;;5089071;27;43485;-71
2023/01/13 03:16:10;;;;;;;0.40;0.40;;;17.40;70.00;;;;;;5075914;27;43482;-71
2023/01/13 03:18:42;;;;;;;0.50;0.50;;;17.40;70.10;;;;;;5094649;27;43466;-71
2023/01/13 03:21:15;;;;;;;0.50;0.50;;;17.40;70.10;;;;;;5101565;27;45059;-71
2023/01/13 03:23:48;;;;;;;0.70;0.70;;;17.40;70.10;;;;;;5103568;27;43463;-72
2023/01/13 03:26:17;;;;;;;0.40;0.40;;;17.30;70.20;;;;;;5079760;27;43406;-72
2023/01/13 03:28:48;;;;;;;0.60;0.60;;;17.40;70.30;;;;;;5098208;27;43768;-71
2023/01/13 03:31:18;;;;;;;0.57;0.57;;;17.40;70.00;;;;;;5106283;27;43914;-72
2023/01/13 03:33:48;;;;;;;0.60;0.60;;;17.60;69.60;;;;;;5080703;27;45119;-72
2023/01/13 03:36:17;;;;;;;0.60;0.60;;;17.60;69.30;;;;;;5103090;27;43414;-70
2023/01/13 03:38:46;;;;;;;0.50;0.50;;;17.60;69.30;;;;;;5093946;27;43423;-71
2023/01/13 03:41:17;;;;;;;0.53;0.53;;;17.50;69.40;;;;;;5101403;27;44946;-71
2023/01/13 03:46:36;;;;;;;0.70;0.70;;;17.50;69.40;;;;;;5093419;27;43494;-70
2023/01/13 03:49:03;;;;;;;0.40;0.40;;;17.50;69.50;;;;;;5102631;27;43492;-71
2023/01/13 03:51:33;;;;;;;0.50;0.50;;;17.50;69.60;;;;;;5094830;27;43869;-71
2023/01/13 03:54:02;;;;;;;0.37;0.37;;;17.40;69.70;;;;;;5102701;27;44243;-71
2023/01/13 03:56:31;;;;;;;0.43;0.43;;;17.40;70.60;;;;;;5106527;27;43434;-71
2023/01/13 03:58:59;;;;;;;0.40;0.40;;;17.40;70.10;;;;;;5096836;27;43490;-72
2023/01/13 04:01:28;;;;;;;0.50;0.50;;;17.40;69.90;;;;;;5097242;27;43932;-70
2023/01/13 04:03:57;;;;;;;0.70;0.70;;;17.40;69.90;;;;;;5098609;27;43408;-73
2023/01/13 04:06:40;;;;;;;0.50;0.50;;;17.40;70.00;;;;;;5099965;27;43391;-71
2023/01/13 04:09:14;;;;;;;0.40;0.40;;;17.40;70.10;;;;;;5081481;27;43595;-72
2023/01/13 04:11:43;;;;;;;0.60;0.60;;;17.40;70.20;;;;;;5100506;27;43840;-70
2023/01/13 04:14:11;;;;;;;0.60;0.60;;;17.30;70.20;;;;;;5100830;27;43371;-70
2023/01/13 04:16:39;;;;;;;0.57;0.57;;;17.40;70.30;;;;;;5083124;27;43454;-72
2023/01/13 04:19:07;;;;;;;0.40;0.40;;;17.50;69.90;;;;;;5102165;27;43466;-73
2023/01/13 04:21:35;;;;;;;0.40;0.40;;;17.60;69.60;;;;;;5099332;27;44449;-70
2023/01/13 04:24:03;;;;;;;0.60;0.60;;;17.60;69.30;;;;;;5101728;27;43499;-70
2023/01/13 04:26:32;;;;;;;0.60;0.60;;;17.60;70.20;;;;;;5099084;27;43376;-72
2023/01/13 04:29:00;;;;;;;0.30;0.30;;;17.50;69.60;;;;;;5099414;27;43473;-70
2023/01/13 04:31:28;;;;;;;0.60;0.60;;;17.50;69.70;;;;;;5082159;28;45719;-70
2023/01/13 04:33:56;;;;;;;0.43;0.43;;;17.50;69.60;;;;;;5098426;27;43789;-72
2023/01/13 04:36:26;;;;;;;0.47;0.47;;;17.50;69.70;;;;;;5094145;27;43704;-71
2023/01/13 04:38:54;;;;;;;0.60;0.60;;;17.40;69.70;;;;;;5099533;27;43422;-70
2023/01/13 04:41:22;;;;;;;0.40;0.40;;;17.40;69.80;;;;;;5096563;27;44075;-70
2023/01/13 04:43:51;;;;;;;0.40;0.40;;;17.40;70.00;;;;;;5094277;27;43404;-70
2023/01/13 04:46:19;;;;;;;0.70;0.70;;;17.40;70.10;;;;;;5095743;27;43381;-71
2023/01/13 04:48:47;;;;;;;0.50;0.50;;;17.40;69.90;;;;;;5101520;27;43509;-70
2023/01/13 04:51:15;;;;;;;0.40;0.40;;;17.40;70.00;;;;;;5096646;27;43916;-71
2023/01/13 04:53:43;;;;;;;0.50;0.50;;;17.40;70.00;;;;;;5101566;27;43963;-70
2023/01/13 04:56:11;;;;;;;0.40;0.40;;;17.40;70.10;;;;;;5085004;27;43910;-72
2023/01/13 04:58:38;;;;;;;0.50;0.50;;;17.30;70.00;;;;;;5096428;27;43462;-71
2023/01/13 05:01:08;;;;;;;0.43;0.43;;;17.30;70.30;;;;;;5099933;27;43743;-72
2023/01/13 05:03:36;;;;;;;0.50;0.50;;;17.40;70.10;;;;;;5102426;27;43365;-71
2023/01/13 05:06:04;;;;;;;0.50;0.50;;;17.50;69.70;;;;;;5099333;27;43418;-71
2023/01/13 05:08:32;;;;;;;0.40;0.40;;;17.60;69.40;;;;;;5101546;27;43361;-70
2023/01/13 05:11:00;;;;;;;0.40;0.40;;;17.60;69.30;;;;;;5080190;27;45616;-72
2023/01/13 05:19:11;;;;;;;0.50;0.50;;;17.50;69.50;;;;;;5016548;28;43464;-70
2023/01/13 05:27:10;;;;;;;0.43;0.43;;;17.50;69.70;;;;;;5099263;27;43418;-70
2023/01/13 05:29:38;;;;;;;0.47;0.47;;;17.40;69.80;;;;;;5101469;27;43493;-70
2023/01/13 05:32:07;;;;;;;0.43;0.43;;;17.40;70.00;;;;;;5101353;27;43756;-70
2023/01/13 05:34:35;;;;;;;0.60;0.60;;;17.40;69.90;;;;;;5096391;27;43492;-72
2023/01/13 05:37:04;;;;;;;0.60;0.60;;;17.40;69.80;;;;;;5094225;27;43728;-72
2023/01/13 05:43:18;;;;;;;0.50;0.50;;;17.40;69.90;;;;;;5092093;27;43517;-73
2023/01/13 05:45:06;;;;;;;0.50;0.50;;;17.40;70.10;;;;;;5093815;27;43530;-72
2023/01/13 05:47:36;;;;;;;0.50;0.50;;;17.40;70.20;;;;;;5100265;27;43640;-72
2023/01/13 05:50:04;;;;;;;0.50;0.50;;;17.50;70.00;;;;;;5084864;27;43572;-71
2023/01/13 05:52:32;;;;;;;0.40;0.40;;;17.60;69.60;;;;;;5102171;27;43571;-71
2023/01/13 05:55:00;;;;;;;0.30;0.30;;;17.60;69.30;;;;;;5099949;27;43518;-71
2023/01/13 05:57:28;;;;;;;0.33;0.33;;;17.60;69.20;;;;;;5092847;27;43348;-71
2023/01/13 05:59:56;;;;;;;0.33;0.33;;;17.60;69.40;;;;;;5103868;27;43491;-71
2023/01/13 06:02:25;;;;;;;0.40;0.40;;;17.60;69.60;;;;;;5099854;27;43904;-71
2023/01/13 06:04:54;;;;;;;0.50;0.50;;;17.50;69.50;;;;;;5103819;27;43409;-72
2023/01/13 06:07:22;;;;;;;0.40;0.40;;;17.50;69.50;;;;;;5101701;27;43433;-70
2023/01/13 06:09:50;;;;;;;0.40;0.40;;;17.50;69.60;;;;;;5101284;27;43901;-72
2023/01/13 06:12:18;;;;;;;0.40;0.40;;;17.50;69.70;;;;;;5082906;27;45897;-72
2023/01/13 06:14:46;;;;;;;0.33;0.33;;;17.40;69.80;;;;;;5102709;27;43423;-70
2023/01/13 06:17:14;;;;;;;0.50;0.50;;;17.40;70.00;;;;;;5098494;27;43458;-72
2023/01/13 06:19:42;;;;;;;0.30;0.30;;;17.40;69.90;;;;;;5095893;27;43433;-72
2023/01/13 06:22:15;;;;;;;0.20;0.20;;;17.40;69.90;;;;;;5093762;27;43972;-71
2023/01/13 06:24:44;;;;;;;0.63;0.63;;;17.40;69.90;;;;;;5102849;27;43431;-71
2023/01/13 06:27:12;;;;;;;0.40;0.40;;;17.40;70.00;;;;;;5098762;27;43366;-71
2023/01/13 06:29:40;;;;;;;0.33;0.33;;;17.40;70.10;;;;;;5106168;27;43498;-71
2023/01/13 06:32:11;;;;;;;0.30;0.30;;;17.40;70.30;;;;;;5080023;27;46211;-72
2023/01/13 06:34:39;;;;;;;0.40;0.40;;;17.40;70.20;;;;;;5101766;27;43949;-72
2023/01/13 06:37:07;;;;;;;0.40;0.40;;;17.40;70.10;;;;;;5101675;27;43466;-72
2023/01/13 06:39:36;;;;;;;0.50;0.50;;;17.40;70.10;;;;;;5082917;27;43462;-71
2023/01/13 06:44:50;;;;;;;0.30;0.30;;;17.40;70.20;;;;;;5085194;27;44532;-71
2023/01/13 06:47:21;;;;;;;0.50;0.50;;;17.40;70.40;;;;;;5098382;27;43999;-73
2023/01/13 06:49:49;;;;;;;0.33;0.33;;;17.40;70.40;;;;;;5085169;27;43507;-72
2023/01/13 06:52:16;;;;;;;0.37;0.37;;;17.50;70.00;;;;;;5102711;27;43976;-72
2023/01/13 06:54:46;;;;;;;0.30;0.30;;;17.60;69.40;;;;;;5093792;27;43384;-72
2023/01/13 06:57:14;;;;;;;0.63;0.63;;;17.70;69.10;;;;;;5094484;27;43553;-71
2023/01/13 06:59:41;;;;;;;0.50;0.50;;;17.70;69.00;;;;;;5108154;27;43440;-72
2023/01/13 07:02:09;;;;;;;0.40;0.40;;;17.70;69.20;;;;;;5095607;27;43912;-71
2023/01/13 07:04:37;;;;;;;0.60;0.60;;;17.70;69.50;;;;;;5084177;27;44781;-70
2023/01/13 07:07:06;;;;;;;0.50;0.50;;;17.70;69.30;;;;;;5107229;27;43967;-70
2023/01/13 07:09:34;;;;;;;0.60;0.60;;;17.60;69.30;;;;;;5082504;27;43585;-73
2023/01/13 07:12:04;;;;;;;0.70;0.70;;;17.60;69.40;;;;;;5086380;27;45698;-70
2023/01/13 07:17:23;;;;;;;1.20;1.10;;;17.50;69.60;;;;;;5100161;27;44034;-72
2023/01/13 07:19:51;;;;;;;2.93;1.10;;;17.50;70.00;;;;;;5098848;27;43360;-71
2023/01/13 07:22:19;;;;;;;1.20;1.10;;;17.50;69.80;;;;;;5099402;27;43895;-72
2023/01/13 07:24:47;;;;;;;1.23;1.20;;;17.50;69.80;;;;;;5104616;27;43407;-72
2023/01/13 07:27:16;;;;;;;1.33;1.33;;;17.40;69.80;;;;;;5106267;27;44082;-71
2023/01/13 07:29:44;;;;;;;1.87;1.50;;;17.40;70.00;;;;;;5083609;27;43523;-71
2023/01/13 07:32:13;;;;;;;1.70;1.60;;;17.40;70.10;;;;;;5076696;27;46198;-73
2023/01/13 07:34:41;;;;;;;1.33;1.27;;;17.40;70.20;;;;;;5106144;27;43459;-70
2023/01/13 07:37:09;;;;;;;1.70;1.60;;;17.40;70.00;;;;;;5098298;27;43617;-72
2023/01/13 07:39:37;;;;;;;1.30;1.20;;;17.40;70.00;;;;;;5095834;27;43433;-72
2023/01/13 07:44:52;;;;;;;2.23;2.00;;;17.40;70.10;;;;;;5102228;27;43454;-71
2023/01/13 07:47:22;;;;;;;2.27;1.90;;;17.40;70.10;;;;;;5091921;27;43500;-72
2023/01/13 07:49:50;;;;;;;2.40;2.20;;;17.40;70.30;;;;;;5099235;27;43795;-72
2023/01/13 07:52:17;;;;;;;2.27;1.90;;;17.50;70.10;;;;;;5086420;27;44136;-71
2023/01/13 07:54:45;;;;;;;1.87;1.67;;;17.60;69.70;;;;;;5080935;27;45449;-71
2023/01/13 07:57:13;;;;;;;4.07;2.37;;;17.70;69.30;;;;;;5071980;28;43443;-71
2023/01/13 07:59:41;;;;;;;3.30;2.10;;;17.70;69.20;;;;;;5098882;27;43539;-72
2023/01/13 08:02:12;;;;;;;1.70;1.60;;;17.60;69.30;;;;;;5089869;27;43832;-71
2023/01/13 08:04:40;;;;;;;2.03;1.83;;;17.60;69.60;;;;;;5089580;27;44036;-71
2023/01/13 08:07:08;;;;;;;2.03;1.70;;;17.60;69.40;;;;;;5086137;27;43477;-71
2023/01/13 08:09:36;;;;;;;1.90;1.80;;;17.60;69.50;;;;;;5098378;27;43441;-72
2023/01/13 08:14:50;;;;;;;2.30;2.10;;;17.50;69.70;;;;;;5079827;27;44871;-70
2023/01/13 08:17:19;;;;;;;3.30;1.97;;;17.50;69.80;;;;;;5096821;27;43415;-70
2023/01/13 08:19:47;;;;;;;1.73;1.63;;;17.40;70.00;;;;;;5083227;27;43611;-71
2023/01/13 08:22:15;;;;;;;2.00;1.80;;;17.40;69.80;;;;;;5101370;27;43619;-72
2023/01/13 08:24:43;;;;;;;1.80;1.70;;;17.40;69.90;;;;;;5102597;27;43410;-72
2023/01/13 08:27:11;;;;;;;1.80;1.70;;;17.40;69.90;;;;;;5084204;27;43378;-71
2023/01/13 08:29:39;;;;;;;1.70;1.60;;;17.40;70.00;;;;;;5103554;27;43543;-72
2023/01/13 08:32:07;;;;;;;2.23;2.03;;;17.40;70.10;;;;;;5085165;27;46146;-72
2023/01/13 08:34:37;;;;;;;2.03;1.93;;;17.40;70.30;;;;;;5104657;27;43466;-71
2023/01/13 08:37:05;;;;;;;1.73;1.63;;;17.50;70.10;;;;;;5100065;27;43439;-71
2023/01/13 08:39:34;;;;;;;1.87;1.73;;;17.60;69.70;;;;;;5097393;27;43435;-72
2023/01/13 08:42:02;;;;;;;1.97;1.83;;;17.60;69.60;;;;;;5095590;27;44028;-71
2023/01/13 08:44:31;;;;;;;2.03;1.93;;;17.60;69.60;;;;;;5102279;27;43509;-70
2023/01/13 08:46:59;;;;;;;1.80;1.70;;;17.50;69.70;;;;;;5077974;27;43375;-71
2023/01/13 08:49:27;;;;;;;1.73;1.63;;;17.50;69.90;;;;;;5080240;27;43447;-71
2023/01/13 08:51:56;;;;;;;1.60;1.50;;;17.50;69.80;;;;;;5098053;27;43916;-72
2023/01/13 08:54:24;;;;;;;1.50;1.40;;;17.50;69.80;;;;;;5105440;27;43609;-71
2023/01/13 08:56:52;;;;;;;1.60;1.50;;;17.50;70.00;;;;;;5091464;27;43444;-72
2023/01/13 08:59:20;;;;;;;1.77;1.67;;;17.40;69.90;;;;;;5101629;27;43439;-72
2023/01/13 09:01:48;;;;;;;2.20;2.00;;;17.40;70.00;;;;;;5099634;27;43889;-72
2023/01/13 09:04:18;;;;;;;1.73;1.63;;;17.40;70.20;;;;;;5102196;27;43365;-72
2023/01/13 09:06:46;;;;;;;1.83;1.70;;;17.40;70.10;;;;;;5098379;27;43913;-71
2023/01/13 09:09:15;;;;;;;2.00;1.90;;;17.40;70.00;;;;;;5098611;27;43433;-72
2023/01/13 09:14:31;;;;;;;1.70;1.50;;;17.40;70.10;;;;;;5070340;27;44396;-71
2023/01/13 09:16:59;;;;;;;1.80;1.70;;;17.40;70.20;;;;;;5089668;27;43437;-72
2023/01/13 09:19:27;;;;;;;1.57;1.53;;;17.40;70.30;;;;;;5104064;27;43395;-72
2023/01/13 09:21:55;;;;;;;1.57;1.47;;;17.40;70.40;;;;;;5077164;27;45900;-71
2023/01/13 09:24:24;;;;;;;1.90;1.80;;;17.40;70.10;;;;;;5086164;27;43548;-71
2023/01/13 09:26:53;;;;;;;1.70;1.60;;;17.60;69.80;;;;;;5072667;27;43491;-73
2023/01/13 09:29:20;;;;;;;1.90;1.80;;;17.60;69.30;;;;;;5073565;27;43943;-70
2023/01/13 09:31:48;;;;;;;1.97;1.87;;;17.70;69.30;;;;;;5070476;27;46442;-70
2023/01/13 09:37:03;;;;;;;1.80;1.70;;;17.60;69.60;;;;;;5088905;27;43825;-70
2023/01/13 09:39:33;;;;;;;1.80;1.70;;;17.60;69.50;;;;;;5071663;27;43507;-71
2023/01/13 09:44:51;;;;;;;1.67;1.57;;;17.50;69.60;;;;;;5089149;27;43448;-71
2023/01/13 09:47:22;;;;;;;1.50;1.50;;;17.50;69.90;;;;;;5088655;27;44064;-72
2023/01/13 09:49:50;;;;;;;1.70;1.60;;;17.40;69.90;;;;;;5088990;27;43455;-71
2023/01/13 09:52:19;;;;;;;1.80;1.70;;;17.40;70.10;;;;;;5088456;27;43607;-72
2023/01/13 09:54:51;;;;;;;1.93;1.70;;;17.40;69.90;;;;;;5087273;27;43403;-72
2023/01/13 09:57:19;;;;;;;2.00;1.90;;;17.40;69.90;;;;;;5070126;27;44043;-72
2023/01/13 09:59:48;;;;;;;2.27;2.07;;;17.40;70.00;;;;;;5101503;27;43928;-71
2023/01/13 10:02:23;;;;;;;1.77;1.67;;;17.40;70.10;;;;;;5088526;27;43615;-71
2023/01/13 10:05:14;;;;;;;2.20;1.83;;;17.40;70.10;;;;;;5087466;27;43478;-72
2023/01/13 10:07:46;;;;;;;1.70;1.60;;;17.40;70.40;;;;;;5071346;27;43426;-70
2023/01/13 10:10:32;;;;;;;1.90;1.80;;;17.40;70.10;;;;;;5104883;27;43421;-70
2023/01/13 10:13:14;;;;;;;1.90;1.80;;;17.60;69.80;;;;;;5093941;27;44011;-71
2023/01/13 10:15:45;;;;;;;1.80;1.70;;;17.70;69.40;;;;;;5100596;27;43861;-73
2023/01/13 10:18:15;;;;;;;1.63;1.53;;;17.60;69.20;;;;;;5102499;27;43423;-71
2023/01/13 10:20:50;;;;;;;2.53;1.87;;;17.60;69.40;;;;;;5087913;27;43534;-71
2023/01/13 10:23:33;;;;;;;2.10;2.00;;;17.60;69.60;;;;;;5098788;27;43959;-71
2023/01/13 10:26:06;;;;;;;1.83;1.73;;;17.60;69.50;;;;;;5096075;27;43458;-72
2023/01/13 10:28:34;;;;;;;1.90;1.80;;;17.50;69.50;;;;;;5095633;27;43485;-72
2023/01/13 10:31:02;;;;;;;1.87;1.77;;;17.50;69.60;;;;;;5091631;27;43798;-70
2023/01/13 10:33:30;;;;;;;1.77;1.67;;;17.50;69.70;;;;;;5107154;27;43925;-71
2023/01/13 10:35:59;;;;;;;1.90;1.80;;;17.40;69.80;;;;;;5101979;27;43455;-72
2023/01/13 10:38:29;;;;;;;1.83;1.73;;;17.40;70.00;;;;;;5100703;27;43419;-72
2023/01/13 10:40:57;;;;;;;2.07;1.97;;;17.40;69.80;;;;;;5100015;27;44026;-72
2023/01/13 10:43:27;;;;;;;2.23;2.13;;;17.50;69.90;;;;;;5096410;27;43916;-71
2023/01/13 10:46:01;;;;;;;2.50;2.07;;;17.40;69.80;;;;;;5090836;27;43578;-70
2023/01/13 10:48:33;;;;;;;1.90;1.80;;;17.40;69.90;;;;;;5101044;27;43470;-72
2023/01/13 10:51:20;;;;;;;2.13;2.03;;;17.40;70.00;;;;;;5105135;27;43728;-72
2023/01/13 10:53:53;;;;;;;2.30;2.10;;;17.40;70.10;;;;;;5106657;27;43777;-72
2023/01/13 10:56:22;;;;;;;2.03;1.93;;;17.40;69.90;;;;;;5103734;27;43470;-71
2023/01/13 10:58:51;;;;;;;2.10;2.00;;;17.40;70.10;;;;;;5090595;27;43480;-72
2023/01/13 11:01:24;;;;;;;1.90;1.80;;;17.40;70.10;;;;;;5086360;27;43404;-70
2023/01/13 11:03:53;;;;;;;2.00;1.90;;;17.40;70.10;;;;;;5092281;27;43649;-72
2023/01/13 11:06:22;;;;;;;2.40;2.27;;;17.40;70.30;;;;;;5100991;27;43473;-72
2023/01/13 11:08:51;;;;;;;1.90;1.80;;;17.40;70.40;;;;;;5095494;27;43433;-72
2023/01/13 11:11:27;;;;;;;2.13;2.00;;;17.50;70.10;;;;;;5098676;27;43353;-71
2023/01/13 11:16:44;;;;;;;2.20;2.10;;;17.70;69.30;;;;;;5073389;28;44569;-71
2023/01/13 11:19:20;;;;;;;2.20;2.10;;;17.70;69.20;;;;;;5089714;27;43978;-71
2023/01/13 11:21:49;;;;;;;1.90;1.80;;;17.60;69.20;;;;;;5092687;27;43438;-71
2023/01/13 11:24:20;;;;;;;2.50;2.10;;;17.60;69.60;;;;;;5095329;27;44038;-72
2023/01/13 11:26:51;;;;;;;2.13;2.03;;;17.60;69.40;;;;;;5097009;27;43490;-71
2023/01/13 11:29:24;;;;;;;2.23;2.10;;;17.60;69.40;;;;;;5091096;27;43425;-71
2023/01/13 11:31:54;;;;;;;2.40;2.20;;;17.60;69.50;;;;;;5103254;27;43454;-71
2023/01/13 11:34:26;;;;;;;2.77;2.30;;;17.50;69.60;;;;;;5097213;27;43950;-71
2023/01/13 11:36:55;;;;;;;1.83;1.73;;;17.50;69.70;;;;;;5083867;27;43456;-71
2023/01/13 11:39:25;;;;;;;2.00;1.90;;;17.50;69.90;;;;;;5100696;27;43502;-71
2023/01/13 11:44:41;;;;;;;2.20;2.10;;;17.50;70.00;;;;;;5096470;27;44010;-72
2023/01/13 11:47:09;;;;;;;2.57;2.37;;;17.50;70.10;;;;;;5091796;27;43451;-71
2023/01/13 11:49:37;;;;;;;2.30;2.20;;;17.50;70.00;;;;;;5092625;27;44279;-72
2023/01/13 11:52:08;;;;;;;2.27;2.10;;;17.40;70.00;;;;;;5094604;27;43410;-71
2023/01/13 11:54:53;;;;;;;2.63;2.43;;;17.40;70.00;;;;;;5099140;27;44113;-70
2023/01/13 11:57:32;;;;;;;3.03;2.50;;;17.40;70.00;;;;;;5086238;27;44104;-71
2023/01/13 12:00:16;;;;;;;2.30;2.10;;;17.40;70.20;;;;;;5082975;27;44079;-72
2023/01/13 12:02:50;;;;;;;2.70;2.47;;;17.50;70.10;;;;;;5101532;27;43809;-71
2023/01/13 12:05:23;;;;;;;2.60;2.40;;;17.70;69.80;;;;;;5105250;27;43607;-71
2023/01/13 12:07:55;;;;;;;2.47;2.27;;;17.80;69.30;;;;;;5104404;27;44014;-72
2023/01/13 12:10:32;;;;;;;2.40;2.20;;;18.00;68.90;;;;;;5090644;27;43393;-72
2023/01/13 12:13:02;;;;;;;2.30;2.20;;;18.10;68.40;;;;;;5085014;27;43438;-72
2023/01/13 12:15:53;;;;;;;2.20;2.00;;;18.30;67.90;;;;;;5099632;27;43610;-71
2023/01/13 12:18:39;;;;;;;2.83;2.63;;;18.40;67.40;;;;;;5101949;27;43403;-72
2023/01/13 12:21:16;;;;;;;2.70;2.50;;;18.50;66.90;;;;;;5094162;27;43415;-71
2023/01/13 12:23:47;;;;;;;2.50;2.30;;;18.60;66.70;;;;;;5080492;27;43575;-71
2023/01/13 12:26:16;;;;;;;2.40;2.30;;;18.70;66.40;;;;;;5082294;27;45748;-72
2023/01/13 12:28:47;;;;;;;2.70;2.50;;;18.80;66.20;;;;;;5098109;27;43455;-72
2023/01/13 12:31:17;;;;;;;2.23;2.13;;;18.70;66.30;;;;;;5100757;27;43450;-72
2023/01/13 12:33:51;;;;;;;2.50;2.30;;;18.70;66.50;;;;;;5076040;27;44011;-71
2023/01/13 12:36:23;;;;;;;2.50;2.30;;;18.50;66.80;;;;;;5097094;27;43798;-71
2023/01/13 12:38:53;;;;;;;2.80;2.30;;;18.30;67.30;;;;;;5103321;27;43558;-72
2023/01/13 12:41:33;;;;;;;2.97;2.70;;;18.20;67.80;;;;;;5094240;27;43959;-71
2023/01/13 12:44:15;;;;;;;2.33;2.20;;;18.20;67.90;;;;;;5095204;27;43560;-71
2023/01/13 12:46:54;;;;;;;2.67;2.47;;;18.10;68.00;;;;;;5089962;27;43918;-71
2023/01/13 12:49:28;;;;;;;2.90;2.70;;;18.00;68.30;;;;;;5101941;27;43338;-71
2023/01/13 12:52:13;;;;;;;2.33;2.17;;;17.90;68.50;;;;;;5099139;27;43454;-72
2023/01/13 12:55:06;;;;;;;2.30;2.20;;;17.80;69.00;;;;;;5101582;27;43321;-70
2023/01/13 12:57:34;;;;;;;2.50;2.30;;;17.80;69.00;;;;;;5090448;27;43914;-71
2023/01/13 13:00:18;;;;;;;2.03;1.93;;;17.80;68.90;;;;;;5103656;27;43459;-71
2023/01/13 13:03:18;;;;;;;2.33;2.23;;;17.70;69.00;;;;;;5095479;27;44139;-71
2023/01/13 13:05:48;;;;;;;2.50;2.30;;;17.70;69.20;;;;;;5096257;27;43971;-70
2023/01/13 13:08:35;;;;;;;2.47;2.27;;;17.60;69.60;;;;;;5077641;27;45661;-71
2023/01/13 13:14:15;;;;;;;3.70;2.67;;;17.80;69.40;;;;;;5100929;27;43401;-69
2023/01/13 13:16:47;;;;;;;2.50;2.30;;;17.90;69.00;;;;;;5076402;28;43575;-71
2023/01/13 13:19:42;;;;;;;2.27;2.17;;;17.90;68.70;;;;;;5096222;27;43661;-72
2023/01/13 13:22:21;;;;;;;2.50;2.30;;;17.90;68.70;;;;;;5092890;27;43487;-71
2023/01/13 13:25:21;;;;;;;2.87;2.67;;;17.90;69.10;;;;;;5088859;27;43855;-71
2023/01/13 13:27:54;;;;;;;2.70;2.50;;;17.90;69.00;;;;;;5091201;27;43569;-71
2023/01/13 13:30:23;;;;;;;2.57;2.47;;;17.80;68.90;;;;;;5079783;27;45827;-71
2023/01/13 13:32:57;;;;;;;2.40;2.30;;;17.80;69.00;;;;;;5079421;27;44725;-72
2023/01/13 13:35:35;;;;;;;2.20;2.10;;;17.70;69.00;;;;;;5079744;27;43402;-71
2023/01/13 13:46:46;;;;;;;2.50;2.30;;;17.60;69.00;;;;;;5070476;27;43482;-72
2023/01/13 13:49:15;;;;;;;2.30;2.20;;;17.60;69.30;;;;;;5094734;27;43503;-71
2023/01/13 13:51:48;;;;;;;2.33;2.13;;;17.60;69.60;;;;;;5094272;27;43915;-73
2023/01/13 13:54:17;;;;;;;2.57;2.37;;;17.60;69.90;;;;;;5101230;27;43866;-70
2023/01/13 13:56:45;;;;;;;2.40;2.30;;;17.70;69.90;;;;;;5101336;27;43466;-71
2023/01/13 13:59:15;;;;;;;2.13;2.03;;;17.70;69.40;;;;;;5101430;27;43958;-71
2023/01/13 14:01:44;;;;;;;2.17;2.07;;;17.80;69.20;;;;;;5096507;27;43916;-70
2023/01/13 14:04:15;;;;;;;2.13;2.03;;;17.80;69.10;;;;;;5100345;27;43981;-72
2023/01/13 14:06:51;;;;;;;1.90;1.80;;;17.70;69.10;;;;;;5097136;27;43374;-72
2023/01/13 14:09:20;;;;;;;2.00;1.90;;;17.70;69.40;;;;;;5098891;27;43473;-71
2023/01/13 14:11:55;;;;;;;2.03;1.93;;;17.70;69.20;;;;;;5099557;27;44036;-70
2023/01/13 14:14:24;;;;;;;2.00;1.90;;;17.70;69.20;;;;;;5087746;27;43786;-72